アスタナ の空港の天気 - METARとTAF

アスタナ国際空港 ( UACC / TSE ) - カザフスタン アスタナ
飛行場実況気象(Metar)
観測時間10/22 17:30 QYZT (10/22 12:30 UTC)
風向・風速西南西 7m/s
視程10km以上
天気現象
全天の8割程度の雲 雲底高度 910m
気温1℃
湿度86%
気圧1012hPa
METARUACC 221230Z 24007MPS 9999 BKN030CB 01/M01 Q1012 R22/1///65 NOSIG RMK QFE728/0970
過去の天気等 Google飛行場航空写真 Wunderground天気予報

過去48時間のMETAR

飛行場予報(TAF)
発表時間: 10/22 16:01 QYZT (10/22 11:01 UTC)
予報対象時間: 22日17時 QYZT ~ 23日17時 QYZT
風向・風速西南西 8m/s
視程10km以上
全天の4割程度の積乱雲 雲底高度 610m
全天の8割程度の雲 雲底高度 1520m
22日17時 QYZT ~ 23日11時 QYZT に一時的に
風向・風速西南西 8m/s 瞬間風速 13m/s
視程5000m
天気現象弱いしゅう雨雪
全天の4割程度の雲 雲底高度 150m
全天の8割程度の積乱雲 雲底高度 460m
23日11時 QYZT ~ 23日17時 QYZT に一時的に
風向・風速西 10m/s 瞬間風速 15m/s
視程2000m
天気現象しゅう雪雨
全天の8割程度の雲 雲底高度 120m
全天の8割程度の積乱雲 雲底高度 460m
TAF UACC 221101Z 2212/2312 24008MPS 9999 SCT020CB BKN050 TX03/2309Z TNM03/2301Z
TEMPO 2212/2306 25008G13MPS 5000 -SHRASN SCT005 BKN015CB
TEMPO 2306/2312 26010G15MPS 2000 SHSNRA BKN004 BKN015CB